createdAt,value
2017-09-28T00:00:34.952Z,100802.59
2017-09-28T00:03:36.293Z,100798.41
2017-09-28T00:06:38.887Z,100802.45
2017-09-28T00:09:41.697Z,100814.13
2017-09-28T00:12:43.439Z,100802.80
2017-09-28T00:15:45.177Z,100806.20
2017-09-28T00:18:46.777Z,100810.60
2017-09-28T00:21:48.146Z,100800.75
2017-09-28T00:24:49.585Z,100803.97
2017-09-28T00:27:50.873Z,100808.22
2017-09-28T00:30:52.338Z,100797.52
2017-09-28T00:33:54.048Z,100797.72
2017-09-28T00:36:56.033Z,100807.06
2017-09-28T00:39:58.356Z,100804.82
2017-09-28T00:43:03.165Z,100806.28
2017-09-28T00:46:05.285Z,100796.03
2017-09-28T00:49:07.499Z,100802.44
2017-09-28T00:52:10.160Z,100808.64
2017-09-28T00:55:12.929Z,100797.62
2017-09-28T00:58:15.122Z,100792.43
2017-09-28T01:01:18.013Z,100799.98
2017-09-28T01:04:19.811Z,100790.34
2017-09-28T01:07:21.657Z,100799.98
2017-09-28T01:10:24.303Z,100792.33
2017-09-28T01:13:26.153Z,100785.75
2017-09-28T01:16:28.756Z,100788.56
2017-09-28T01:19:30.844Z,100783.31
2017-09-28T01:22:32.941Z,100782.73
2017-09-28T01:25:34.806Z,100781.85
2017-09-28T01:28:37.467Z,100780.52
2017-09-28T01:31:39.333Z,100776.92
2017-09-28T01:34:41.277Z,100779.33
2017-09-28T01:37:43.064Z,100777.12
2017-09-28T01:40:46.674Z,100782.14
2017-09-28T01:43:49.373Z,100773.77
2017-09-28T01:46:52.390Z,100777.20
2017-09-28T01:49:54.342Z,100774.17
2017-09-28T01:52:58.998Z,100767.77
2017-09-28T01:56:01.961Z,100777.58
2017-09-28T01:59:04.133Z,100766.80
2017-09-28T02:02:07.054Z,100760.48
2017-09-28T02:05:10.074Z,100760.59
2017-09-28T02:08:12.114Z,100763.30
2017-09-28T02:11:14.863Z,100751.83
2017-09-28T02:14:16.649Z,100765.39
2017-09-28T02:17:18.730Z,100761.88
2017-09-28T02:20:21.468Z,100761.41
2017-09-28T02:23:23.398Z,100766.69
2017-09-28T02:26:25.931Z,100766.05
2017-09-28T02:29:27.850Z,100766.91
2017-09-28T02:32:29.732Z,100757.56
2017-09-28T02:35:31.660Z,100764.25
2017-09-28T02:38:35.123Z,100754.23
2017-09-28T02:41:37.032Z,100763.36
2017-09-28T02:44:39.510Z,100771.23
2017-09-28T02:47:42.084Z,100771.75
2017-09-28T02:50:44.159Z,100770.00
2017-09-28T02:53:45.909Z,100765.23
2017-09-28T02:56:47.747Z,100778.76
2017-09-28T02:59:52.659Z,100773.20
2017-09-28T03:02:54.556Z,100772.27
2017-09-28T03:05:57.135Z,100776.05
2017-09-28T03:09:00.133Z,100774.33
2017-09-28T03:12:03.159Z,100774.07
2017-09-28T03:15:05.002Z,100769.53
2017-09-28T03:18:07.563Z,100792.03
2017-09-28T03:21:10.113Z,100787.43
2017-09-28T03:24:11.981Z,100772.03
2017-09-28T03:27:14.139Z,100779.16
2017-09-28T03:30:15.887Z,100770.16
2017-09-28T03:33:17.990Z,100769.11
2017-09-28T03:36:21.153Z,100773.89
2017-09-28T03:39:23.000Z,100766.99
2017-09-28T03:42:24.838Z,100770.89
2017-09-28T03:45:26.768Z,100768.28
2017-09-28T03:48:29.362Z,100763.81
2017-09-28T03:51:31.541Z,100769.92
2017-09-28T03:54:33.418Z,100769.34
2017-09-28T03:57:35.312Z,100772.27
2017-09-28T04:00:37.555Z,100768.86
2017-09-28T04:03:39.385Z,100762.98
2017-09-28T04:06:42.007Z,100763.22
2017-09-28T04:09:43.823Z,100765.84
2017-09-28T04:12:46.503Z,100776.95
2017-09-28T04:15:49.172Z,100766.12
2017-09-28T04:18:51.858Z,100751.30
2017-09-28T04:21:53.950Z,100749.79
2017-09-28T04:24:56.669Z,100757.68
2017-09-28T04:28:00.200Z,100759.44
2017-09-28T04:31:02.078Z,100764.11
2017-09-28T04:34:04.087Z,100755.06
2017-09-28T04:37:06.059Z,100757.22
2017-09-28T04:40:07.905Z,100739.78
2017-09-28T04:43:09.726Z,100750.66
2017-09-28T04:49:21.675Z,100760.71
2017-09-28T04:52:23.461Z,100751.66
2017-09-28T04:55:25.305Z,100753.59
2017-09-28T04:58:27.109Z,100750.95
2017-09-28T05:01:28.955Z,100747.05
2017-09-28T05:04:30.764Z,100756.95
2017-09-28T05:07:32.667Z,100753.66
2017-09-28T05:10:34.471Z,100749.95
2017-09-28T05:13:37.094Z,100750.76
2017-09-28T05:16:39.340Z,100746.70
2017-09-28T05:19:41.233Z,100752.53
2017-09-28T05:22:43.998Z,100754.79
2017-09-28T05:25:45.916Z,100757.13
2017-09-28T05:28:47.833Z,100745.27
2017-09-28T05:31:49.662Z,100751.40
2017-09-28T05:34:52.584Z,100750.20
2017-09-28T05:37:54.368Z,100755.15
2017-09-28T05:40:57.174Z,100758.20
2017-09-28T05:44:01.349Z,100754.84
2017-09-28T05:47:03.189Z,100760.31
2017-09-28T05:50:05.254Z,100760.25
2017-09-28T05:53:07.195Z,100751.80
2017-09-28T05:56:09.151Z,100755.59
2017-09-28T05:59:11.042Z,100762.28
2017-09-28T06:02:13.637Z,100759.84
2017-09-28T06:05:16.630Z,100758.14
2017-09-28T06:08:18.362Z,100760.02
2017-09-28T06:11:20.891Z,100751.89
2017-09-28T06:14:22.567Z,100757.62
2017-09-28T06:17:25.795Z,100766.75
2017-09-28T06:20:28.411Z,100767.77
2017-09-28T06:23:30.330Z,100772.75
2017-09-28T06:26:33.197Z,100766.77
2017-09-28T06:29:34.943Z,100774.13
2017-09-28T06:32:37.615Z,100772.39
2017-09-28T06:35:39.363Z,100783.69
2017-09-28T06:38:41.250Z,100785.36
2017-09-28T06:41:43.910Z,100787.95
2017-09-28T06:44:46.432Z,100779.88
2017-09-28T06:47:49.013Z,100790.78
2017-09-28T06:50:51.560Z,100782.94
2017-09-28T06:53:53.376Z,100781.09
2017-09-28T06:56:55.358Z,100779.66
2017-09-28T06:59:58.535Z,100776.64
2017-09-28T07:03:00.866Z,100777.42
2017-09-28T07:06:02.994Z,100785.09
2017-09-28T07:09:05.420Z,100781.86
2017-09-28T07:12:08.054Z,100780.06
2017-09-28T07:15:09.896Z,100792.27
2017-09-28T07:18:11.726Z,100783.39
2017-09-28T07:21:14.441Z,100787.25
2017-09-28T07:24:16.514Z,100780.76
2017-09-28T07:27:18.475Z,100782.16
2017-09-28T07:30:21.679Z,100785.69
2017-09-28T07:33:24.197Z,100787.50
2017-09-28T07:36:26.451Z,100788.52
2017-09-28T07:39:31.802Z,100796.80
2017-09-28T07:42:34.876Z,100797.33
2017-09-28T07:45:39.302Z,100799.23
2017-09-28T07:48:43.008Z,100807.03
2017-09-28T07:51:45.736Z,100800.91
2017-09-28T07:54:48.159Z,100798.70
2017-09-28T07:57:50.100Z,100803.91
2017-09-28T08:00:51.882Z,100803.34
2017-09-28T08:03:54.527Z,100804.59
2017-09-28T08:06:57.079Z,100806.45
2017-09-28T08:09:58.848Z,100810.85
2017-09-28T08:13:01.365Z,100812.70
2017-09-28T08:16:03.273Z,100816.34
2017-09-28T08:19:05.362Z,100809.66
2017-09-28T08:22:07.824Z,100801.42
2017-09-28T08:25:09.972Z,100806.52
2017-09-28T08:28:11.936Z,100799.27
2017-09-28T08:31:13.910Z,100806.87
2017-09-28T08:34:15.816Z,100801.84
2017-09-28T08:37:17.696Z,100798.29
2017-09-28T08:40:20.505Z,100790.27
2017-09-28T08:43:22.396Z,100788.70
2017-09-28T08:46:25.249Z,100785.05
2017-09-28T08:49:27.074Z,100797.38
2017-09-28T08:52:29.696Z,100792.28
2017-09-28T08:55:31.625Z,100783.39
2017-09-28T08:58:33.574Z,100787.32
2017-09-28T09:01:36.473Z,100784.94
2017-09-28T09:04:38.537Z,100784.76
2017-09-28T09:07:41.076Z,100782.95
2017-09-28T09:10:43.025Z,100785.00
2017-09-28T09:13:44.838Z,100781.28
2017-09-28T09:16:46.672Z,100778.51
2017-09-28T09:19:49.313Z,100796.63
2017-09-28T09:22:51.937Z,100794.33
2017-09-28T09:25:53.757Z,100795.65
2017-09-28T09:28:56.529Z,100797.67
2017-09-28T09:31:58.405Z,100786.17
2017-09-28T09:35:00.268Z,100794.25
2017-09-28T09:38:02.187Z,100791.12
2017-09-28T09:41:04.002Z,100788.54
2017-09-28T09:44:05.891Z,100782.05
2017-09-28T09:47:08.000Z,100784.75
2017-09-28T09:50:10.583Z,100779.61
2017-09-28T09:53:13.201Z,100774.72
2017-09-28T09:56:15.076Z,100784.30
2017-09-28T09:59:18.015Z,100788.52
2017-09-28T10:02:20.629Z,100788.45
2017-09-28T10:05:22.514Z,100781.24
2017-09-28T10:08:31.254Z,100788.02
2017-09-28T10:11:36.904Z,100788.73
2017-09-28T10:14:48.945Z,100791.17
2017-09-28T10:17:50.845Z,100793.18
2017-09-28T10:20:52.852Z,100791.80
2017-09-28T10:23:56.492Z,100781.15
2017-09-28T10:26:58.356Z,100792.38
2017-09-28T10:30:00.245Z,100794.61
2017-09-28T10:33:02.947Z,100800.42
2017-09-28T10:36:04.770Z,100802.22
2017-09-28T10:39:06.624Z,100805.73
2017-09-28T10:42:09.244Z,100804.90
2017-09-28T10:45:11.108Z,100808.73
2017-09-28T10:48:12.936Z,100814.75
2017-09-28T10:51:14.855Z,100811.88
2017-09-28T10:54:17.385Z,100809.16
2017-09-28T10:57:19.336Z,100820.27
2017-09-28T11:00:21.223Z,100820.98
2017-09-28T11:03:23.014Z,100816.79
2017-09-28T11:06:25.620Z,100825.45
2017-09-28T11:09:27.420Z,100815.77
2017-09-28T11:12:29.636Z,100820.86
2017-09-28T11:15:32.178Z,100807.59
2017-09-28T11:18:34.109Z,100819.67
2017-09-28T11:21:37.749Z,100821.63
2017-09-28T11:24:40.613Z,100822.28
2017-09-28T11:27:42.403Z,100811.52
2017-09-28T11:30:44.176Z,100814.05
2017-09-28T11:33:45.907Z,100808.14
2017-09-28T11:36:47.643Z,100821.53
2017-09-28T11:39:49.538Z,100824.51
2017-09-28T11:42:51.391Z,100813.20
2017-09-28T11:45:53.421Z,100813.97
2017-09-28T11:48:55.255Z,100805.48
2017-09-28T11:51:57.141Z,100799.48
2017-09-28T11:54:58.933Z,100810.61
2017-09-28T11:58:00.716Z,100801.15
2017-09-28T12:01:02.549Z,100803.23
2017-09-28T12:04:04.305Z,100800.11
2017-09-28T12:07:06.138Z,100796.42
2017-09-28T12:10:07.970Z,100800.14
2017-09-28T12:13:10.444Z,100800.45
2017-09-28T12:16:12.199Z,100804.20
2017-09-28T12:19:14.986Z,100801.47
2017-09-28T12:22:17.730Z,100810.13
2017-09-28T12:25:19.611Z,100804.20
2017-09-28T12:28:21.618Z,100810.10
2017-09-28T12:31:25.063Z,100812.22
2017-09-28T12:34:27.670Z,100808.98
2017-09-28T12:37:29.473Z,100808.72
2017-09-28T12:40:31.856Z,100811.80
2017-09-28T12:43:33.676Z,100809.23
2017-09-28T12:46:35.510Z,100805.52
2017-09-28T12:49:38.526Z,100797.62
2017-09-28T12:52:40.267Z,100796.86
2017-09-28T12:55:42.532Z,100796.17
2017-09-28T12:58:45.012Z,100807.73
2017-09-28T13:01:46.781Z,100812.91
2017-09-28T13:04:48.586Z,100805.80
2017-09-28T13:07:50.483Z,100796.35
2017-09-28T13:10:53.102Z,100805.81
2017-09-28T13:13:54.980Z,100806.14
2017-09-28T13:16:56.733Z,100805.99
2017-09-28T13:19:58.591Z,100794.24
2017-09-28T13:23:01.372Z,100791.73
2017-09-28T13:26:03.235Z,100792.38
2017-09-28T13:29:05.283Z,100788.73
2017-09-28T13:32:07.138Z,100787.55
2017-09-28T13:35:08.964Z,100788.91
2017-09-28T13:38:10.439Z,100780.61
2017-09-28T13:41:12.304Z,100786.13
2017-09-28T13:44:14.700Z,100776.73
2017-09-28T13:47:17.261Z,100780.81
2017-09-28T13:50:18.885Z,100786.34
2017-09-28T13:53:21.777Z,100780.62
2017-09-28T13:56:23.992Z,100790.77
2017-09-28T13:59:25.967Z,100781.94
2017-09-28T14:02:29.029Z,100778.81
2017-09-28T14:05:31.665Z,100786.48
2017-09-28T14:08:35.198Z,100776.59
2017-09-28T14:11:37.747Z,100780.87
2017-09-28T14:14:40.447Z,100775.50
2017-09-28T14:17:42.768Z,100776.13
2017-09-28T14:20:44.791Z,100778.44
2017-09-28T14:23:47.457Z,100778.97
2017-09-28T14:26:51.231Z,100781.52
2017-09-28T14:29:53.059Z,100791.20
2017-09-28T14:32:55.630Z,100780.37
2017-09-28T14:35:58.155Z,100780.27
2017-09-28T14:39:00.741Z,100781.67
2017-09-28T14:42:02.955Z,100788.25
2017-09-28T14:45:07.476Z,100782.18
2017-09-28T14:48:09.445Z,100782.00
2017-09-28T14:51:11.299Z,100788.87
2017-09-28T14:54:13.084Z,100779.66
2017-09-28T14:57:16.405Z,100778.75
2017-09-28T15:00:18.725Z,100785.66
2017-09-28T15:03:20.647Z,100778.41
2017-09-28T15:06:22.798Z,100781.91
2017-09-28T15:09:25.891Z,100783.16
2017-09-28T15:12:28.575Z,100778.30
2017-09-28T15:15:30.580Z,100775.91
2017-09-28T15:18:33.289Z,100777.77
2017-09-28T15:21:35.224Z,100778.28
2017-09-28T15:24:37.103Z,100774.98
2017-09-28T15:27:39.600Z,100773.67
2017-09-28T15:30:41.833Z,100780.48
2017-09-28T15:33:43.961Z,100775.25
2017-09-28T15:36:46.591Z,100771.68
2017-09-28T15:39:48.637Z,100777.38
2017-09-28T15:42:50.552Z,100777.09
2017-09-28T15:45:52.389Z,100772.00
2017-09-28T15:48:54.364Z,100775.93
2017-09-28T15:51:57.466Z,100776.22
2017-09-28T15:54:59.320Z,100768.76
2017-09-28T15:58:01.162Z,100774.58
2017-09-28T16:01:03.067Z,100784.88
2017-09-28T16:04:06.526Z,100781.95
2017-09-28T16:07:08.464Z,100781.03
2017-09-28T16:10:10.356Z,100782.35
2017-09-28T16:13:12.119Z,100777.70
2017-09-28T16:16:14.002Z,100778.33
2017-09-28T16:19:15.827Z,100783.42
2017-09-28T16:22:17.842Z,100779.42
2017-09-28T16:25:19.697Z,100784.01
2017-09-28T16:28:21.549Z,100778.38
2017-09-28T16:31:23.317Z,100778.05
2017-09-28T16:34:25.164Z,100781.87
2017-09-28T16:37:27.111Z,100784.27
2017-09-28T16:40:29.053Z,100781.70
2017-09-28T16:43:31.251Z,100785.04
2017-09-28T16:46:35.689Z,100779.84
2017-09-28T16:49:37.774Z,100783.33
2017-09-28T16:52:39.609Z,100776.42
2017-09-28T16:55:41.356Z,100781.36
2017-09-28T16:58:43.119Z,100777.88
2017-09-28T17:01:45.834Z,100783.59
2017-09-28T17:04:47.882Z,100782.63
2017-09-28T17:07:50.383Z,100782.05
2017-09-28T17:10:52.297Z,100788.05
2017-09-28T17:13:54.062Z,100787.02
2017-09-28T17:16:55.922Z,100791.48
2017-09-28T17:19:57.743Z,100794.28
2017-09-28T17:23:00.665Z,100788.94
2017-09-28T17:26:03.396Z,100790.39
2017-09-28T17:29:05.885Z,100795.75
2017-09-28T17:32:08.509Z,100793.27
2017-09-28T17:35:10.288Z,100796.20
2017-09-28T17:38:12.101Z,100797.88
2017-09-28T17:41:14.565Z,100796.76
2017-09-28T17:44:17.188Z,100801.70
2017-09-28T17:47:19.007Z,100803.08
2017-09-28T17:50:21.550Z,100807.09
2017-09-28T17:53:23.395Z,100810.04
2017-09-28T17:56:25.158Z,100799.05
2017-09-28T17:59:26.969Z,100801.10
2017-09-28T18:02:29.445Z,100801.20
2017-09-28T18:05:31.235Z,100806.11
2017-09-28T18:08:33.103Z,100811.05
2017-09-28T18:11:35.877Z,100810.31
2017-09-28T18:14:38.599Z,100817.44
2017-09-28T18:17:40.538Z,100817.80
2017-09-28T18:20:43.035Z,100818.31
2017-09-28T18:23:45.182Z,100819.79
2017-09-28T18:26:47.701Z,100816.19
2017-09-28T18:29:50.102Z,100822.61
2017-09-28T18:32:51.944Z,100825.91
2017-09-28T18:35:53.792Z,100833.80
2017-09-28T18:38:56.560Z,100826.14
2017-09-28T18:41:59.119Z,100819.89
2017-09-28T18:45:03.775Z,100812.19
2017-09-28T18:48:05.640Z,100821.06
2017-09-28T18:51:08.198Z,100818.04
2017-09-28T18:54:10.636Z,100821.70
2017-09-28T18:57:12.740Z,100824.42
2017-09-28T19:00:14.507Z,100821.27
2017-09-28T19:03:15.954Z,100824.66
2017-09-28T19:06:18.011Z,100827.05
2017-09-28T19:09:21.736Z,100824.86
2017-09-28T19:12:24.450Z,100830.77
2017-09-28T19:15:29.367Z,100827.48
2017-09-28T19:18:31.258Z,100818.88
2017-09-28T19:21:32.873Z,100824.62
2017-09-28T19:24:34.757Z,100819.69
2017-09-28T19:27:36.161Z,100817.44
2017-09-28T19:30:38.994Z,100817.29
2017-09-28T19:33:41.276Z,100824.55
2017-09-28T19:36:44.256Z,100821.03
2017-09-28T19:39:46.710Z,100827.42
2017-09-28T19:42:48.087Z,100823.55
2017-09-28T19:45:51.772Z,100833.29
2017-09-28T19:48:54.560Z,100829.88
2017-09-28T19:51:57.373Z,100830.74
2017-09-28T19:55:00.973Z,100831.22
2017-09-28T19:58:02.616Z,100832.45
2017-09-28T20:01:05.169Z,100835.61
2017-09-28T20:04:07.450Z,100838.94
2017-09-28T20:07:09.976Z,100856.68
2017-09-28T20:10:14.527Z,100856.23
2017-09-28T20:13:17.516Z,100863.29
2017-09-28T20:16:19.060Z,100866.87
2017-09-28T20:19:21.971Z,100867.04
2017-09-28T20:22:23.707Z,100851.66
2017-09-28T20:25:27.142Z,100853.79
2017-09-28T20:28:37.443Z,100865.56
2017-09-28T20:31:39.611Z,100853.83
2017-09-28T20:34:42.131Z,100856.11
2017-09-28T20:37:43.888Z,100864.18
2017-09-28T20:40:47.214Z,100860.78
2017-09-28T20:43:50.140Z,100858.23
2017-09-28T20:46:51.881Z,100858.02
2017-09-28T20:49:53.926Z,100857.51
2017-09-28T20:52:55.664Z,100855.37
2017-09-28T20:55:57.739Z,100854.02
2017-09-28T20:58:59.486Z,100860.01
2017-09-28T21:02:02.207Z,100854.66
2017-09-28T21:05:04.017Z,100861.61
2017-09-28T21:08:08.377Z,100850.52
2017-09-28T21:11:10.125Z,100850.59
2017-09-28T21:14:13.113Z,100851.47
2017-09-28T21:17:14.896Z,100844.48
2017-09-28T21:20:18.197Z,100841.68
2017-09-28T21:23:35.276Z,100850.78
2017-09-28T21:26:37.022Z,100843.86
2017-09-28T21:29:38.529Z,100847.56
2017-09-28T21:32:40.653Z,100839.79
2017-09-28T21:35:42.117Z,100838.97
2017-09-28T21:38:43.695Z,100839.14
2017-09-28T21:41:46.112Z,100841.39
2017-09-28T21:44:47.636Z,100849.27
2017-09-28T21:47:49.513Z,100842.44
2017-09-28T21:50:52.042Z,100846.12
2017-09-28T21:53:54.849Z,100838.75
2017-09-28T21:56:56.747Z,100839.53
2017-09-28T21:59:58.489Z,100834.50
2017-09-28T22:03:00.725Z,100828.98
2017-09-28T22:06:02.266Z,100829.91
2017-09-28T22:09:04.653Z,100836.09
2017-09-28T22:12:07.124Z,100837.20
2017-09-28T22:15:09.693Z,100844.11
2017-09-28T22:18:11.526Z,100835.53
2017-09-28T22:21:13.301Z,100828.56
2017-09-28T22:24:15.209Z,100829.01
2017-09-28T22:27:17.899Z,100833.41
2017-09-28T22:30:19.728Z,100828.97
2017-09-28T22:33:21.536Z,100820.94
2017-09-28T22:36:23.268Z,100822.08
2017-09-28T22:39:25.036Z,100819.98
2017-09-28T22:42:26.833Z,100820.80
2017-09-28T22:45:28.580Z,100820.64
2017-09-28T22:48:30.338Z,100810.72
2017-09-28T22:51:32.314Z,100812.34
2017-09-28T22:54:34.014Z,100817.73
2017-09-28T22:57:36.587Z,100811.00
2017-09-28T23:00:39.079Z,100820.17
2017-09-28T23:03:40.898Z,100816.80
2017-09-28T23:06:42.726Z,100816.42
2017-09-28T23:09:44.552Z,100811.43
2017-09-28T23:12:46.745Z,100818.23
2017-09-28T23:15:48.458Z,100811.59
2017-09-28T23:18:50.746Z,100813.34
2017-09-28T23:21:52.489Z,100815.18
2017-09-28T23:24:55.067Z,100810.68
2017-09-28T23:27:56.884Z,100806.00
2017-09-28T23:30:58.679Z,100803.25
2017-09-28T23:34:00.527Z,100807.34
2017-09-28T23:37:02.443Z,100800.81
2017-09-28T23:40:04.911Z,100798.77
2017-09-28T23:43:07.427Z,100795.72
2017-09-28T23:46:09.161Z,100797.17
2017-09-28T23:49:11.644Z,100799.86
2017-09-28T23:52:13.805Z,100794.48
2017-09-28T23:55:15.535Z,100800.02
2017-09-28T23:58:18.142Z,100793.05
